sensor_id;sensor_type;location;lat;lon;timestamp;P1;durP1;ratioP1;P2;durP2;ratioP2
67841;SDS011;54642;59.126;37.876;2022-12-18T00:01:30;7.63;;;3.78;;
67841;SDS011;54642;59.126;37.876;2022-12-18T00:03:58;11.52;;;5.10;;
67841;SDS011;54642;59.126;37.876;2022-12-18T00:06:26;9.18;;;5.22;;
67841;SDS011;54642;59.126;37.876;2022-12-18T00:08:54;2.47;;;1.77;;
67841;SDS011;54642;59.126;37.876;2022-12-18T00:11:23;8.32;;;4.78;;
67841;SDS011;54642;59.126;37.876;2022-12-18T00:13:51;5.85;;;3.70;;
67841;SDS011;54642;59.126;37.876;2022-12-18T00:16:20;7.45;;;4.90;;
67841;SDS011;54642;59.126;37.876;2022-12-18T00:18:48;8.77;;;5.28;;
67841;SDS011;54642;59.126;37.876;2022-12-18T00:21:15;4.82;;;3.05;;
67841;SDS011;54642;59.126;37.876;2022-12-18T00:23:43;11.57;;;6.00;;
67841;SDS011;54642;59.126;37.876;2022-12-18T00:26:14;5.28;;;4.22;;
67841;SDS011;54642;59.126;37.876;2022-12-18T00:28:45;6.20;;;5.30;;
67841;SDS011;54642;59.126;37.876;2022-12-18T00:31:15;4.28;;;3.20;;
67841;SDS011;54642;59.126;37.876;2022-12-18T00:33:44;4.63;;;2.90;;
67841;SDS011;54642;59.126;37.876;2022-12-18T00:36:11;7.70;;;4.43;;
67841;SDS011;54642;59.126;37.876;2022-12-18T00:38:40;7.75;;;4.85;;
67841;SDS011;54642;59.126;37.876;2022-12-18T00:41:06;5.10;;;3.63;;
67841;SDS011;54642;59.126;37.876;2022-12-18T00:43:35;9.88;;;4.22;;
67841;SDS011;54642;59.126;37.876;2022-12-18T00:46:02;8.20;;;5.22;;
67841;SDS011;54642;59.126;37.876;2022-12-18T00:48:28;9.55;;;4.65;;
67841;SDS011;54642;59.126;37.876;2022-12-18T00:50:54;7.97;;;4.75;;
67841;SDS011;54642;59.126;37.876;2022-12-18T00:53:20;8.00;;;4.13;;
67841;SDS011;54642;59.126;37.876;2022-12-18T00:55:46;9.07;;;4.88;;
67841;SDS011;54642;59.126;37.876;2022-12-18T00:58:13;7.43;;;3.88;;
67841;SDS011;54642;59.126;37.876;2022-12-18T01:00:41;11.38;;;4.97;;
67841;SDS011;54642;59.126;37.876;2022-12-18T01:03:11;8.52;;;4.50;;
67841;SDS011;54642;59.126;37.876;2022-12-18T01:05:39;11.32;;;5.00;;
67841;SDS011;54642;59.126;37.876;2022-12-18T01:08:07;6.38;;;4.35;;
67841;SDS011;54642;59.126;37.876;2022-12-18T01:10:34;3.08;;;2.55;;
67841;SDS011;54642;59.126;37.876;2022-12-18T01:12:59;3.08;;;2.78;;
67841;SDS011;54642;59.126;37.876;2022-12-18T01:15:25;1.67;;;1.30;;
67841;SDS011;54642;59.126;37.876;2022-12-18T01:17:54;8.15;;;4.30;;
67841;SDS011;54642;59.126;37.876;2022-12-18T01:20:22;2.72;;;2.42;;
67841;SDS011;54642;59.126;37.876;2022-12-18T01:22:48;6.00;;;4.78;;
67841;SDS011;54642;59.126;37.876;2022-12-18T01:25:14;7.72;;;6.22;;
67841;SDS011;54642;59.126;37.876;2022-12-18T01:27:40;6.00;;;4.50;;
67841;SDS011;54642;59.126;37.876;2022-12-18T01:30:06;4.65;;;3.92;;
67841;SDS011;54642;59.126;37.876;2022-12-18T01:32:33;6.85;;;5.63;;
67841;SDS011;54642;59.126;37.876;2022-12-18T01:35:01;6.55;;;4.22;;
67841;SDS011;54642;59.126;37.876;2022-12-18T01:37:27;7.18;;;5.03;;
67841;SDS011;54642;59.126;37.876;2022-12-18T01:39:53;4.72;;;3.80;;
67841;SDS011;54642;59.126;37.876;2022-12-18T01:42:22;8.55;;;5.65;;
67841;SDS011;54642;59.126;37.876;2022-12-18T01:50:15;6.72;;;4.25;;
67841;SDS011;54642;59.126;37.876;2022-12-18T01:53:12;10.40;;;6.40;;
67841;SDS011;54642;59.126;37.876;2022-12-18T01:55:46;8.43;;;3.60;;
67841;SDS011;54642;59.126;37.876;2022-12-18T01:58:15;3.58;;;2.40;;
67841;SDS011;54642;59.126;37.876;2022-12-18T02:00:47;5.60;;;4.05;;
67841;SDS011;54642;59.126;37.876;2022-12-18T02:03:13;7.28;;;5.30;;
67841;SDS011;54642;59.126;37.876;2022-12-18T02:14:37;5.50;;;3.08;;
67841;SDS011;54642;59.126;37.876;2022-12-18T02:22:53;6.80;;;3.67;;
67841;SDS011;54642;59.126;37.876;2022-12-18T02:28:50;3.50;;;3.10;;
67841;SDS011;54642;59.126;37.876;2022-12-18T02:31:21;5.05;;;3.13;;
67841;SDS011;54642;59.126;37.876;2022-12-18T02:33:52;5.55;;;3.85;;
67841;SDS011;54642;59.126;37.876;2022-12-18T02:36:20;6.90;;;4.18;;
67841;SDS011;54642;59.126;37.876;2022-12-18T02:38:48;6.63;;;4.35;;
67841;SDS011;54642;59.126;37.876;2022-12-18T02:41:15;8.45;;;4.15;;
67841;SDS011;54642;59.126;37.876;2022-12-18T02:43:47;7.47;;;3.20;;
67841;SDS011;54642;59.126;37.876;2022-12-18T02:46:25;6.85;;;3.95;;
67841;SDS011;54642;59.126;37.876;2022-12-18T02:51:52;4.15;;;3.17;;
67841;SDS011;54642;59.126;37.876;2022-12-18T03:00:08;8.93;;;5.40;;
67841;SDS011;54642;59.126;37.876;2022-12-18T03:07:55;6.95;;;4.70;;
67841;SDS011;54642;59.126;37.876;2022-12-18T03:10:31;4.28;;;2.75;;
67841;SDS011;54642;59.126;37.876;2022-12-18T03:13:02;9.60;;;6.35;;
67841;SDS011;54642;59.126;37.876;2022-12-18T03:15:34;10.63;;;6.60;;
67841;SDS011;54642;59.126;37.876;2022-12-18T03:18:12;6.65;;;4.53;;
67841;SDS011;54642;59.126;37.876;2022-12-18T03:20:42;6.97;;;4.57;;
67841;SDS011;54642;59.126;37.876;2022-12-18T03:23:18;7.30;;;3.92;;
67841;SDS011;54642;59.126;37.876;2022-12-18T03:25:48;2.65;;;2.13;;
67841;SDS011;54642;59.126;37.876;2022-12-18T03:28:22;4.03;;;2.95;;
67841;SDS011;54642;59.126;37.876;2022-12-18T03:30:58;6.68;;;4.15;;
67841;SDS011;54642;59.126;37.876;2022-12-18T03:33:31;7.15;;;4.05;;
67841;SDS011;54642;59.126;37.876;2022-12-18T03:36:09;7.00;;;3.45;;
67841;SDS011;54642;59.126;37.876;2022-12-18T03:38:38;7.45;;;4.97;;
67841;SDS011;54642;59.126;37.876;2022-12-18T03:41:17;3.40;;;2.80;;
67841;SDS011;54642;59.126;37.876;2022-12-18T03:44:20;2.30;;;1.90;;
67841;SDS011;54642;59.126;37.876;2022-12-18T03:46:58;3.92;;;3.60;;
67841;SDS011;54642;59.126;37.876;2022-12-18T03:52:30;3.28;;;2.83;;
67841;SDS011;54642;59.126;37.876;2022-12-18T03:55:02;6.43;;;4.18;;
67841;SDS011;54642;59.126;37.876;2022-12-18T03:57:31;6.68;;;4.38;;
67841;SDS011;54642;59.126;37.876;2022-12-18T04:00:05;7.93;;;4.65;;
67841;SDS011;54642;59.126;37.876;2022-12-18T04:02:52;4.78;;;4.32;;
67841;SDS011;54642;59.126;37.876;2022-12-18T04:05:29;4.72;;;2.85;;
67841;SDS011;54642;59.126;37.876;2022-12-18T04:08:01;6.13;;;3.05;;
67841;SDS011;54642;59.126;37.876;2022-12-18T04:10:29;6.90;;;3.55;;
67841;SDS011;54642;59.126;37.876;2022-12-18T04:12:57;3.80;;;2.47;;
67841;SDS011;54642;59.126;37.876;2022-12-18T04:15:25;3.83;;;2.25;;
67841;SDS011;54642;59.126;37.876;2022-12-18T04:17:51;5.07;;;3.53;;
67841;SDS011;54642;59.126;37.876;2022-12-18T04:20:21;7.53;;;4.18;;
67841;SDS011;54642;59.126;37.876;2022-12-18T04:22:47;9.50;;;4.55;;
67841;SDS011;54642;59.126;37.876;2022-12-18T04:25:13;5.32;;;3.50;;
67841;SDS011;54642;59.126;37.876;2022-12-18T04:27:53;6.72;;;4.85;;
67841;SDS011;54642;59.126;37.876;2022-12-18T04:30:22;3.75;;;2.72;;
67841;SDS011;54642;59.126;37.876;2022-12-18T04:32:48;2.58;;;2.33;;
67841;SDS011;54642;59.126;37.876;2022-12-18T04:35:14;7.93;;;3.60;;
67841;SDS011;54642;59.126;37.876;2022-12-18T04:37:42;5.05;;;3.70;;
67841;SDS011;54642;59.126;37.876;2022-12-18T04:42:42;3.42;;;2.50;;
67841;SDS011;54642;59.126;37.876;2022-12-18T04:45:08;1.75;;;1.63;;
67841;SDS011;54642;59.126;37.876;2022-12-18T04:47:35;5.57;;;3.10;;
67841;SDS011;54642;59.126;37.876;2022-12-18T04:50:01;4.50;;;3.00;;
67841;SDS011;54642;59.126;37.876;2022-12-18T04:52:27;4.63;;;3.00;;
67841;SDS011;54642;59.126;37.876;2022-12-18T04:54:56;3.20;;;2.38;;
67841;SDS011;54642;59.126;37.876;2022-12-18T04:57:22;2.90;;;2.25;;
67841;SDS011;54642;59.126;37.876;2022-12-18T04:59:48;3.17;;;2.58;;
67841;SDS011;54642;59.126;37.876;2022-12-18T05:02:14;5.82;;;3.30;;
67841;SDS011;54642;59.126;37.876;2022-12-18T05:04:40;5.45;;;3.55;;
67841;SDS011;54642;59.126;37.876;2022-12-18T05:07:06;5.57;;;3.47;;
67841;SDS011;54642;59.126;37.876;2022-12-18T05:09:31;7.13;;;5.43;;
67841;SDS011;54642;59.126;37.876;2022-12-18T05:11:57;6.72;;;5.57;;
67841;SDS011;54642;59.126;37.876;2022-12-18T05:14:23;7.20;;;4.07;;
67841;SDS011;54642;59.126;37.876;2022-12-18T05:16:49;7.57;;;4.53;;
67841;SDS011;54642;59.126;37.876;2022-12-18T05:19:15;7.65;;;5.43;;
67841;SDS011;54642;59.126;37.876;2022-12-18T05:21:41;9.32;;;4.00;;
67841;SDS011;54642;59.126;37.876;2022-12-18T05:24:07;10.48;;;4.85;;
67841;SDS011;54642;59.126;37.876;2022-12-18T05:26:33;4.90;;;3.63;;
67841;SDS011;54642;59.126;37.876;2022-12-18T05:28:59;5.72;;;3.13;;
67841;SDS011;54642;59.126;37.876;2022-12-18T05:31:24;6.65;;;3.30;;
67841;SDS011;54642;59.126;37.876;2022-12-18T05:33:50;6.07;;;4.00;;
67841;SDS011;54642;59.126;37.876;2022-12-18T05:36:19;7.63;;;4.70;;
67841;SDS011;54642;59.126;37.876;2022-12-18T05:38:45;7.35;;;5.15;;
67841;SDS011;54642;59.126;37.876;2022-12-18T05:41:11;4.63;;;3.20;;
67841;SDS011;54642;59.126;37.876;2022-12-18T05:43:38;4.60;;;3.03;;
67841;SDS011;54642;59.126;37.876;2022-12-18T05:46:10;7.10;;;5.32;;
67841;SDS011;54642;59.126;37.876;2022-12-18T05:48:38;5.38;;;4.20;;
67841;SDS011;54642;59.126;37.876;2022-12-18T05:51:14;7.15;;;3.90;;
67841;SDS011;54642;59.126;37.876;2022-12-18T05:53:42;4.60;;;4.07;;
67841;SDS011;54642;59.126;37.876;2022-12-18T05:56:14;2.65;;;1.98;;
67841;SDS011;54642;59.126;37.876;2022-12-18T05:58:42;4.43;;;4.03;;
67841;SDS011;54642;59.126;37.876;2022-12-18T06:01:20;4.85;;;3.22;;
67841;SDS011;54642;59.126;37.876;2022-12-18T06:03:52;7.47;;;4.55;;
67841;SDS011;54642;59.126;37.876;2022-12-18T06:06:19;8.95;;;6.28;;
67841;SDS011;54642;59.126;37.876;2022-12-18T06:08:47;5.80;;;3.78;;
67841;SDS011;54642;59.126;37.876;2022-12-18T06:11:18;2.58;;;2.38;;
67841;SDS011;54642;59.126;37.876;2022-12-18T06:13:51;2.38;;;1.77;;
67841;SDS011;54642;59.126;37.876;2022-12-18T06:16:24;4.60;;;3.10;;
67841;SDS011;54642;59.126;37.876;2022-12-18T06:18:50;5.63;;;3.58;;
67841;SDS011;54642;59.126;37.876;2022-12-18T06:21:16;4.13;;;3.17;;
67841;SDS011;54642;59.126;37.876;2022-12-18T06:23:42;4.05;;;2.45;;
67841;SDS011;54642;59.126;37.876;2022-12-18T06:28:39;4.65;;;3.00;;
67841;SDS011;54642;59.126;37.876;2022-12-18T06:31:20;6.43;;;4.07;;
67841;SDS011;54642;59.126;37.876;2022-12-18T06:33:46;5.07;;;3.78;;
67841;SDS011;54642;59.126;37.876;2022-12-18T06:36:12;4.90;;;3.15;;
67841;SDS011;54642;59.126;37.876;2022-12-18T06:38:40;7.22;;;4.00;;
67841;SDS011;54642;59.126;37.876;2022-12-18T06:41:15;8.07;;;5.70;;
67841;SDS011;54642;59.126;37.876;2022-12-18T06:43:42;9.07;;;4.93;;
67841;SDS011;54642;59.126;37.876;2022-12-18T06:46:09;4.38;;;3.17;;
67841;SDS011;54642;59.126;37.876;2022-12-18T06:48:35;3.72;;;2.53;;
67841;SDS011;54642;59.126;37.876;2022-12-18T06:51:10;4.63;;;2.83;;
67841;SDS011;54642;59.126;37.876;2022-12-18T06:53:36;7.72;;;3.88;;
67841;SDS011;54642;59.126;37.876;2022-12-18T06:56:04;4.63;;;1.88;;
67841;SDS011;54642;59.126;37.876;2022-12-18T06:58:32;5.10;;;3.45;;
67841;SDS011;54642;59.126;37.876;2022-12-18T07:01:05;9.07;;;5.10;;
67841;SDS011;54642;59.126;37.876;2022-12-18T07:03:33;8.63;;;4.47;;
67841;SDS011;54642;59.126;37.876;2022-12-18T07:05:59;5.53;;;3.28;;
67841;SDS011;54642;59.126;37.876;2022-12-18T07:08:28;4.82;;;2.97;;
67841;SDS011;54642;59.126;37.876;2022-12-18T07:10:55;3.35;;;3.05;;
67841;SDS011;54642;59.126;37.876;2022-12-18T07:13:21;3.75;;;3.22;;
67841;SDS011;54642;59.126;37.876;2022-12-18T07:15:47;5.45;;;3.95;;
67841;SDS011;54642;59.126;37.876;2022-12-18T07:18:12;5.70;;;3.88;;
67841;SDS011;54642;59.126;37.876;2022-12-18T07:20:38;4.80;;;2.35;;
67841;SDS011;54642;59.126;37.876;2022-12-18T07:23:04;9.45;;;4.90;;
67841;SDS011;54642;59.126;37.876;2022-12-18T07:25:35;6.82;;;3.55;;
67841;SDS011;54642;59.126;37.876;2022-12-18T07:28:01;5.50;;;3.75;;
67841;SDS011;54642;59.126;37.876;2022-12-18T07:32:53;16.80;;;4.55;;
67841;SDS011;54642;59.126;37.876;2022-12-18T07:35:22;4.43;;;2.67;;
67841;SDS011;54642;59.126;37.876;2022-12-18T07:37:51;3.75;;;3.05;;
67841;SDS011;54642;59.126;37.876;2022-12-18T07:40:17;4.40;;;3.30;;
67841;SDS011;54642;59.126;37.876;2022-12-18T07:42:43;4.70;;;2.47;;
67841;SDS011;54642;59.126;37.876;2022-12-18T07:45:11;7.88;;;4.90;;
67841;SDS011;54642;59.126;37.876;2022-12-18T07:47:40;7.82;;;4.05;;
67841;SDS011;54642;59.126;37.876;2022-12-18T07:50:06;5.50;;;4.57;;
67841;SDS011;54642;59.126;37.876;2022-12-18T07:52:33;5.25;;;3.60;;
67841;SDS011;54642;59.126;37.876;2022-12-18T07:54:58;9.73;;;3.28;;
67841;SDS011;54642;59.126;37.876;2022-12-18T07:57:24;4.95;;;3.95;;
67841;SDS011;54642;59.126;37.876;2022-12-18T07:59:50;2.72;;;1.95;;
67841;SDS011;54642;59.126;37.876;2022-12-18T08:09:09;5.97;;;3.72;;
67841;SDS011;54642;59.126;37.876;2022-12-18T08:11:36;5.05;;;4.00;;
67841;SDS011;54642;59.126;37.876;2022-12-18T08:14:04;7.53;;;4.78;;
67841;SDS011;54642;59.126;37.876;2022-12-18T08:16:30;2.92;;;2.55;;
67841;SDS011;54642;59.126;37.876;2022-12-18T08:18:56;2.50;;;2.30;;
67841;SDS011;54642;59.126;37.876;2022-12-18T08:24:09;3.83;;;2.67;;
67841;SDS011;54642;59.126;37.876;2022-12-18T08:26:36;4.38;;;2.65;;
67841;SDS011;54642;59.126;37.876;2022-12-18T08:29:02;3.25;;;2.72;;
67841;SDS011;54642;59.126;37.876;2022-12-18T08:31:28;2.13;;;1.92;;
67841;SDS011;54642;59.126;37.876;2022-12-18T08:33:55;3.63;;;3.30;;
67841;SDS011;54642;59.126;37.876;2022-12-18T08:36:24;3.05;;;2.50;;
67841;SDS011;54642;59.126;37.876;2022-12-18T08:38:50;4.68;;;2.38;;
67841;SDS011;54642;59.126;37.876;2022-12-18T08:41:16;4.65;;;3.30;;
67841;SDS011;54642;59.126;37.876;2022-12-18T08:43:43;4.95;;;3.28;;
67841;SDS011;54642;59.126;37.876;2022-12-18T08:46:31;2.75;;;2.15;;
67841;SDS011;54642;59.126;37.876;2022-12-18T08:49:05;6.47;;;3.95;;
67841;SDS011;54642;59.126;37.876;2022-12-18T08:51:33;4.18;;;2.78;;
67841;SDS011;54642;59.126;37.876;2022-12-18T08:53:59;7.03;;;3.38;;
67841;SDS011;54642;59.126;37.876;2022-12-18T08:56:25;5.05;;;2.30;;
67841;SDS011;54642;59.126;37.876;2022-12-18T08:58:54;2.78;;;1.55;;
67841;SDS011;54642;59.126;37.876;2022-12-18T09:01:28;3.38;;;2.33;;
67841;SDS011;54642;59.126;37.876;2022-12-18T09:03:54;2.47;;;1.40;;
67841;SDS011;54642;59.126;37.876;2022-12-18T09:06:20;3.88;;;3.33;;
67841;SDS011;54642;59.126;37.876;2022-12-18T09:08:48;4.78;;;3.22;;
67841;SDS011;54642;59.126;37.876;2022-12-18T09:11:21;1.45;;;1.35;;
67841;SDS011;54642;59.126;37.876;2022-12-18T09:13:49;5.30;;;3.03;;
67841;SDS011;54642;59.126;37.876;2022-12-18T09:16:16;4.25;;;3.50;;
67841;SDS011;54642;59.126;37.876;2022-12-18T09:18:42;3.95;;;2.42;;
67841;SDS011;54642;59.126;37.876;2022-12-18T09:21:12;2.25;;;1.95;;
67841;SDS011;54642;59.126;37.876;2022-12-18T09:23:40;7.93;;;4.80;;
67841;SDS011;54642;59.126;37.876;2022-12-18T09:26:08;9.20;;;5.10;;
67841;SDS011;54642;59.126;37.876;2022-12-18T09:28:34;19.30;;;8.35;;
67841;SDS011;54642;59.126;37.876;2022-12-18T09:31:03;13.43;;;6.97;;
67841;SDS011;54642;59.126;37.876;2022-12-18T09:33:31;14.35;;;4.47;;
67841;SDS011;54642;59.126;37.876;2022-12-18T09:35:57;4.68;;;2.53;;
67841;SDS011;54642;59.126;37.876;2022-12-18T09:38:23;5.90;;;4.68;;
67841;SDS011;54642;59.126;37.876;2022-12-18T09:40:50;8.75;;;5.50;;
67841;SDS011;54642;59.126;37.876;2022-12-18T09:43:19;8.30;;;3.70;;
67841;SDS011;54642;59.126;37.876;2022-12-18T09:45:51;8.13;;;3.53;;
67841;SDS011;54642;59.126;37.876;2022-12-18T09:48:44;5.95;;;2.67;;
67841;SDS011;54642;59.126;37.876;2022-12-18T09:51:21;10.65;;;4.53;;
67841;SDS011;54642;59.126;37.876;2022-12-18T09:54:00;11.75;;;4.75;;
67841;SDS011;54642;59.126;37.876;2022-12-18T09:56:31;3.88;;;3.47;;
67841;SDS011;54642;59.126;37.876;2022-12-18T09:59:03;10.52;;;3.10;;
67841;SDS011;54642;59.126;37.876;2022-12-18T10:01:33;8.25;;;3.45;;
67841;SDS011;54642;59.126;37.876;2022-12-18T10:03:59;18.23;;;5.22;;
67841;SDS011;54642;59.126;37.876;2022-12-18T10:09:02;5.30;;;4.45;;
67841;SDS011;54642;59.126;37.876;2022-12-18T10:20:30;5.95;;;2.40;;
67841;SDS011;54642;59.126;37.876;2022-12-18T10:26:07;4.38;;;2.35;;
67841;SDS011;54642;59.126;37.876;2022-12-18T10:28:35;7.57;;;3.72;;
67841;SDS011;54642;59.126;37.876;2022-12-18T10:31:18;10.38;;;5.00;;
67841;SDS011;54642;59.126;37.876;2022-12-18T10:33:47;11.30;;;7.30;;
67841;SDS011;54642;59.126;37.876;2022-12-18T10:36:13;12.40;;;6.85;;
67841;SDS011;54642;59.126;37.876;2022-12-18T10:41:06;11.07;;;4.85;;
67841;SDS011;54642;59.126;37.876;2022-12-18T10:43:43;10.65;;;4.82;;
67841;SDS011;54642;59.126;37.876;2022-12-18T10:48:57;9.57;;;5.75;;
67841;SDS011;54642;59.126;37.876;2022-12-18T10:51:27;16.67;;;7.47;;
67841;SDS011;54642;59.126;37.876;2022-12-18T10:56:27;2.58;;;2.17;;
67841;SDS011;54642;59.126;37.876;2022-12-18T10:58:59;6.10;;;4.60;;
67841;SDS011;54642;59.126;37.876;2022-12-18T11:01:53;5.85;;;3.53;;
67841;SDS011;54642;59.126;37.876;2022-12-18T11:04:29;3.33;;;2.72;;
67841;SDS011;54642;59.126;37.876;2022-12-18T11:06:58;8.15;;;5.57;;
67841;SDS011;54642;59.126;37.876;2022-12-18T11:09:28;10.50;;;5.20;;
67841;SDS011;54642;59.126;37.876;2022-12-18T11:12:01;3.65;;;3.13;;
67841;SDS011;54642;59.126;37.876;2022-12-18T11:17:21;3.95;;;3.13;;
67841;SDS011;54642;59.126;37.876;2022-12-18T11:20:19;18.17;;;5.75;;
67841;SDS011;54642;59.126;37.876;2022-12-18T11:22:59;4.68;;;2.85;;
67841;SDS011;54642;59.126;37.876;2022-12-18T11:25:26;6.25;;;3.08;;
67841;SDS011;54642;59.126;37.876;2022-12-18T11:27:56;3.30;;;2.97;;
67841;SDS011;54642;59.126;37.876;2022-12-18T11:30:31;2.55;;;1.85;;
67841;SDS011;54642;59.126;37.876;2022-12-18T11:33:19;4.15;;;1.90;;
67841;SDS011;54642;59.126;37.876;2022-12-18T11:38:26;3.28;;;2.97;;
67841;SDS011;54642;59.126;37.876;2022-12-18T11:43:30;2.42;;;2.17;;
67841;SDS011;54642;59.126;37.876;2022-12-18T11:46:10;7.10;;;2.72;;
67841;SDS011;54642;59.126;37.876;2022-12-18T11:48:45;4.93;;;3.08;;
67841;SDS011;54642;59.126;37.876;2022-12-18T11:51:25;15.18;;;6.90;;
67841;SDS011;54642;59.126;37.876;2022-12-18T11:54:13;14.52;;;6.75;;
67841;SDS011;54642;59.126;37.876;2022-12-18T11:56:58;27.98;;;15.00;;
67841;SDS011;54642;59.126;37.876;2022-12-18T12:07:46;1.42;;;1.10;;
67841;SDS011;54642;59.126;37.876;2022-12-18T12:13:26;15.63;;;8.25;;
67841;SDS011;54642;59.126;37.876;2022-12-18T12:29:46;8.18;;;4.82;;
67841;SDS011;54642;59.126;37.876;2022-12-18T12:38:18;3.15;;;2.85;;
67841;SDS011;54642;59.126;37.876;2022-12-18T12:41:08;11.30;;;5.47;;
67841;SDS011;54642;59.126;37.876;2022-12-18T12:43:57;6.82;;;4.10;;
67841;SDS011;54642;59.126;37.876;2022-12-18T12:46:30;4.45;;;2.35;;
67841;SDS011;54642;59.126;37.876;2022-12-18T12:49:12;9.15;;;4.50;;
67841;SDS011;54642;59.126;37.876;2022-12-18T12:51:45;10.90;;;7.07;;
67841;SDS011;54642;59.126;37.876;2022-12-18T12:54:28;26.42;;;9.90;;
67841;SDS011;54642;59.126;37.876;2022-12-18T12:56:59;13.68;;;8.13;;
67841;SDS011;54642;59.126;37.876;2022-12-18T13:02:33;4.40;;;2.22;;
67841;SDS011;54642;59.126;37.876;2022-12-18T13:07:56;14.07;;;9.43;;
67841;SDS011;54642;59.126;37.876;2022-12-18T13:15:45;7.20;;;4.90;;
67841;SDS011;54642;59.126;37.876;2022-12-18T13:18:19;6.63;;;5.68;;
67841;SDS011;54642;59.126;37.876;2022-12-18T13:20:51;16.92;;;8.82;;
67841;SDS011;54642;59.126;37.876;2022-12-18T13:23:33;14.13;;;2.22;;
67841;SDS011;54642;59.126;37.876;2022-12-18T13:28:59;8.75;;;5.55;;
67841;SDS011;54642;59.126;37.876;2022-12-18T13:34:20;7.78;;;3.78;;
67841;SDS011;54642;59.126;37.876;2022-12-18T13:36:50;11.07;;;6.75;;
67841;SDS011;54642;59.126;37.876;2022-12-18T13:39:25;26.50;;;10.27;;
67841;SDS011;54642;59.126;37.876;2022-12-18T13:44:39;12.32;;;6.47;;
67841;SDS011;54642;59.126;37.876;2022-12-18T13:47:26;9.18;;;5.05;;
67841;SDS011;54642;59.126;37.876;2022-12-18T13:49:57;6.47;;;4.55;;
67841;SDS011;54642;59.126;37.876;2022-12-18T13:52:28;7.57;;;4.38;;
67841;SDS011;54642;59.126;37.876;2022-12-18T13:55:03;9.93;;;3.78;;
67841;SDS011;54642;59.126;37.876;2022-12-18T14:02:59;8.63;;;4.20;;
67841;SDS011;54642;59.126;37.876;2022-12-18T14:07:54;6.93;;;5.78;;
67841;SDS011;54642;59.126;37.876;2022-12-18T14:10:26;13.45;;;6.72;;
67841;SDS011;54642;59.126;37.876;2022-12-18T14:12:52;8.90;;;4.90;;
67841;SDS011;54642;59.126;37.876;2022-12-18T14:20:54;14.55;;;7.93;;
67841;SDS011;54642;59.126;37.876;2022-12-18T14:23:39;10.13;;;4.22;;
67841;SDS011;54642;59.126;37.876;2022-12-18T14:26:20;7.85;;;5.80;;
67841;SDS011;54642;59.126;37.876;2022-12-18T14:28:53;17.15;;;9.02;;
67841;SDS011;54642;59.126;37.876;2022-12-18T14:31:25;10.93;;;5.38;;
67841;SDS011;54642;59.126;37.876;2022-12-18T14:33:55;31.95;;;7.90;;
67841;SDS011;54642;59.126;37.876;2022-12-18T14:38:53;8.00;;;4.75;;
67841;SDS011;54642;59.126;37.876;2022-12-18T14:41:20;12.70;;;6.78;;
67841;SDS011;54642;59.126;37.876;2022-12-18T14:43:48;16.00;;;8.52;;
67841;SDS011;54642;59.126;37.876;2022-12-18T14:48:54;20.08;;;7.07;;
67841;SDS011;54642;59.126;37.876;2022-12-18T14:51:22;8.85;;;3.90;;
67841;SDS011;54642;59.126;37.876;2022-12-18T14:53:55;10.68;;;7.88;;
67841;SDS011;54642;59.126;37.876;2022-12-18T14:56:23;9.90;;;5.70;;
67841;SDS011;54642;59.126;37.876;2022-12-18T14:59:04;22.58;;;11.60;;
67841;SDS011;54642;59.126;37.876;2022-12-18T15:01:39;28.27;;;10.52;;
67841;SDS011;54642;59.126;37.876;2022-12-18T15:04:26;13.57;;;5.78;;
67841;SDS011;54642;59.126;37.876;2022-12-18T15:09:42;3.15;;;2.60;;
67841;SDS011;54642;59.126;37.876;2022-12-18T15:12:44;2.97;;;2.67;;
67841;SDS011;54642;59.126;37.876;2022-12-18T15:15:03;8.15;;;2.95;;
67841;SDS011;54642;59.126;37.876;2022-12-18T15:17:31;17.63;;;6.82;;
67841;SDS011;54642;59.126;37.876;2022-12-18T15:20:01;9.02;;;5.22;;
67841;SDS011;54642;59.126;37.876;2022-12-18T15:22:34;6.38;;;4.35;;
67841;SDS011;54642;59.126;37.876;2022-12-18T15:25:02;6.55;;;4.05;;
67841;SDS011;54642;59.126;37.876;2022-12-18T15:27:46;5.15;;;3.47;;
67841;SDS011;54642;59.126;37.876;2022-12-18T15:30:19;3.38;;;2.58;;
67841;SDS011;54642;59.126;37.876;2022-12-18T15:32:48;6.00;;;3.10;;
67841;SDS011;54642;59.126;37.876;2022-12-18T15:35:16;6.78;;;3.65;;
67841;SDS011;54642;59.126;37.876;2022-12-18T15:37:47;6.82;;;4.28;;
67841;SDS011;54642;59.126;37.876;2022-12-18T15:40:15;7.82;;;4.88;;
67841;SDS011;54642;59.126;37.876;2022-12-18T15:42:45;9.82;;;3.97;;
67841;SDS011;54642;59.126;37.876;2022-12-18T15:45:30;6.35;;;3.53;;
67841;SDS011;54642;59.126;37.876;2022-12-18T15:50:22;4.47;;;2.90;;
67841;SDS011;54642;59.126;37.876;2022-12-18T15:55:19;6.05;;;2.72;;
67841;SDS011;54642;59.126;37.876;2022-12-18T15:58:05;5.25;;;3.15;;
67841;SDS011;54642;59.126;37.876;2022-12-18T16:00:32;5.85;;;3.10;;
67841;SDS011;54642;59.126;37.876;2022-12-18T16:03:00;8.65;;;4.53;;
67841;SDS011;54642;59.126;37.876;2022-12-18T16:05:27;25.80;;;4.70;;
67841;SDS011;54642;59.126;37.876;2022-12-18T16:07:54;9.05;;;4.10;;
67841;SDS011;54642;59.126;37.876;2022-12-18T16:10:20;6.95;;;5.07;;
67841;SDS011;54642;59.126;37.876;2022-12-18T16:12:46;47.45;;;14.48;;
67841;SDS011;54642;59.126;37.876;2022-12-18T16:15:13;15.93;;;6.93;;
67841;SDS011;54642;59.126;37.876;2022-12-18T16:17:41;16.33;;;6.10;;
67841;SDS011;54642;59.126;37.876;2022-12-18T16:20:19;53.88;;;12.05;;
67841;SDS011;54642;59.126;37.876;2022-12-18T16:22:47;51.35;;;19.27;;
67841;SDS011;54642;59.126;37.876;2022-12-18T16:25:21;89.03;;;34.67;;
67841;SDS011;54642;59.126;37.876;2022-12-18T16:27:49;99.57;;;35.22;;
67841;SDS011;54642;59.126;37.876;2022-12-18T16:30:17;74.70;;;24.00;;
67841;SDS011;54642;59.126;37.876;2022-12-18T16:32:46;46.55;;;20.45;;
67841;SDS011;54642;59.126;37.876;2022-12-18T16:35:13;52.85;;;17.20;;
67841;SDS011;54642;59.126;37.876;2022-12-18T16:37:41;68.10;;;26.20;;
67841;SDS011;54642;59.126;37.876;2022-12-18T16:40:12;67.07;;;26.17;;
67841;SDS011;54642;59.126;37.876;2022-12-18T16:42:40;43.90;;;16.73;;
67841;SDS011;54642;59.126;37.876;2022-12-18T16:45:09;84.53;;;29.50;;
67841;SDS011;54642;59.126;37.876;2022-12-18T16:47:37;64.07;;;22.73;;
67841;SDS011;54642;59.126;37.876;2022-12-18T16:50:04;66.00;;;29.05;;
67841;SDS011;54642;59.126;37.876;2022-12-18T16:52:30;73.07;;;24.05;;
67841;SDS011;54642;59.126;37.876;2022-12-18T16:54:56;61.28;;;21.30;;
67841;SDS011;54642;59.126;37.876;2022-12-18T16:57:22;40.10;;;17.95;;
67841;SDS011;54642;59.126;37.876;2022-12-18T16:59:48;48.33;;;17.13;;
67841;SDS011;54642;59.126;37.876;2022-12-18T17:02:15;37.15;;;12.57;;
67841;SDS011;54642;59.126;37.876;2022-12-18T17:04:43;47.17;;;15.68;;
67841;SDS011;54642;59.126;37.876;2022-12-18T17:07:10;25.77;;;9.82;;
67841;SDS011;54642;59.126;37.876;2022-12-18T17:09:37;77.20;;;30.63;;
67841;SDS011;54642;59.126;37.876;2022-12-18T17:12:03;47.53;;;19.23;;
67841;SDS011;54642;59.126;37.876;2022-12-18T17:14:30;53.05;;;18.05;;
67841;SDS011;54642;59.126;37.876;2022-12-18T17:16:57;48.40;;;18.00;;
67841;SDS011;54642;59.126;37.876;2022-12-18T17:19:24;72.18;;;23.35;;
67841;SDS011;54642;59.126;37.876;2022-12-18T17:21:54;50.05;;;18.33;;
67841;SDS011;54642;59.126;37.876;2022-12-18T17:24:23;79.40;;;29.42;;
67841;SDS011;54642;59.126;37.876;2022-12-18T17:26:49;108.20;;;44.80;;
67841;SDS011;54642;59.126;37.876;2022-12-18T17:29:16;154.15;;;59.60;;
67841;SDS011;54642;59.126;37.876;2022-12-18T17:31:44;127.10;;;42.50;;
67841;SDS011;54642;59.126;37.876;2022-12-18T17:34:12;146.48;;;48.70;;